Time;durP1;ratioP1;P1;durP2;ratioP2;P2;SDS_P1;SDS_P2;PMS_P1;PMS_P2;Temp;Humidity;BMP_temperature;BMP_pressure;BME280_temperature;BME280_humidity;BME280_pressure;Samples;Min_cycle;Max_cycle;Signal;HPM_P1;HPM_P2
2021/05/09 00:00:58;;;;;;;2.20;2.20;;;16.40;56.30;;;;;;4988130;28;20256;-88
2021/05/09 00:03:24;;;;;;;2.17;2.17;;;15.50;56.00;;;;;;4970445;28;20433;-89
2021/05/09 00:05:50;;;;;;;2.27;2.27;;;15.40;56.00;;;;;;4969260;28;20552;-88
2021/05/09 00:08:16;;;;;;;2.50;2.50;;;16.10;56.90;;;;;;4966109;28;20912;-89
2021/05/09 00:10:42;;;;;;;2.40;2.30;;;17.60;58.40;;;;;;4965651;28;20469;-88
2021/05/09 00:13:08;;;;;;;2.67;2.57;;;13.70;54.60;;;;;;4968317;28;20204;-89
2021/05/09 00:15:35;;;;;;;2.80;2.70;;;16.70;57.20;;;;;;4988085;28;20425;-88
2021/05/09 00:18:09;;;;;;;2.20;2.10;;;17.10;57.70;;;;;;4985796;28;20440;-88
2021/05/09 00:20:35;;;;;;;2.83;2.73;;;15.30;57.30;;;;;;4972233;28;20205;-88
2021/05/09 00:23:01;;;;;;;3.03;2.90;;;16.70;57.10;;;;;;4969789;28;20413;-88
2021/05/09 00:25:26;;;;;;;2.97;2.97;;;15.70;57.70;;;;;;4969741;28;20580;-88
2021/05/09 00:28:00;;;;;;;2.70;2.60;;;14.30;56.10;;;;;;4986801;28;20516;-88
2021/05/09 00:30:26;;;;;;;2.10;2.00;;;14.60;55.90;;;;;;4971426;28;20218;-87
2021/05/09 00:32:52;;;;;;;2.83;2.63;;;16.00;57.70;;;;;;4952295;28;20453;-88
2021/05/09 00:35:18;;;;;;;2.33;2.33;;;15.00;57.00;;;;;;4964179;28;20508;-88
2021/05/09 00:37:44;;;;;;;2.83;2.30;;;14.60;56.50;;;;;;4984172;28;20444;-89
2021/05/09 00:40:10;;;;;;;4.17;2.53;;;16.30;57.70;;;;;;4982958;28;20664;-89
2021/05/09 00:42:37;;;;;;;2.50;2.50;;;15.10;56.80;;;;;;4969924;28;20182;-88
2021/05/09 00:45:04;;;;;;;2.40;2.40;;;16.70;57.80;;;;;;4969568;28;20440;-88
2021/05/09 00:47:30;;;;;;;2.57;2.50;;;15.70;56.80;;;;;;4969055;28;20422;-88
2021/05/09 00:49:57;;;;;;;2.67;2.50;;;15.00;57.40;;;;;;4984935;28;20622;-90
2021/05/09 00:52:27;;;;;;;2.90;2.70;;;15.90;57.50;;;;;;4965758;28;20178;-89
2021/05/09 00:55:01;;;;;;;2.20;2.10;;;14.90;56.80;;;;;;4969885;28;20426;-88
2021/05/09 00:57:27;;;;;;;2.50;2.40;;;14.90;56.90;;;;;;4968448;28;20408;-89
2021/05/09 00:59:55;;;;;;;3.30;3.00;;;16.70;58.00;;;;;;4969393;28;20417;-89
2021/05/09 01:02:21;;;;;;;3.20;3.00;;;15.60;57.30;;;;;;4982750;28;20433;-90
2021/05/09 01:04:47;;;;;;;2.40;2.30;;;15.90;58.00;;;;;;4985219;28;20413;-89
2021/05/09 01:07:16;;;;;;;2.30;2.30;;;14.40;56.60;;;;;;4966589;28;20201;-89
2021/05/09 01:09:42;;;;;;;2.70;2.60;;;14.90;56.60;;;;;;4964623;28;20213;-89
2021/05/09 01:12:16;;;;;;;2.73;2.63;;;14.40;56.40;;;;;;4965341;28;20429;-89
2021/05/09 01:14:43;;;;;;;2.57;2.57;;;15.30;56.40;;;;;;4965505;28;20413;-88
2021/05/09 01:17:09;;;;;;;2.40;2.40;;;15.90;57.60;;;;;;4966763;28;20432;-89
2021/05/09 01:19:35;;;;;;;2.20;2.20;;;16.70;58.10;;;;;;4971732;28;20492;-89
2021/05/09 01:22:01;;;;;;;2.50;2.50;;;14.70;56.00;;;;;;4989894;28;20413;-88
2021/05/09 01:24:27;;;;;;;2.70;2.60;;;16.10;57.20;;;;;;4974657;28;20405;-88
2021/05/09 01:26:53;;;;;;;1.97;1.97;;;16.10;58.20;;;;;;4977521;28;20477;-88
2021/05/09 01:29:18;;;;;;;2.20;2.20;;;15.40;57.30;;;;;;4992623;28;20216;-87
2021/05/09 01:31:48;;;;;;;3.07;2.90;;;15.80;58.10;;;;;;5000836;28;20429;-88
2021/05/09 01:34:14;;;;;;;2.83;2.63;;;15.00;57.50;;;;;;5001736;28;20170;-89
2021/05/09 01:36:40;;;;;;;2.13;2.13;;;16.50;57.80;;;;;;5001876;28;20437;-88
2021/05/09 01:39:06;;;;;;;2.73;2.63;;;16.50;57.90;;;;;;4998141;28;20410;-88
2021/05/09 01:41:33;;;;;;;2.67;2.67;;;14.40;56.80;;;;;;4987900;28;20178;-87
2021/05/09 01:43:59;;;;;;;2.23;2.23;;;14.80;57.00;;;;;;4969622;28;20424;-90
2021/05/09 01:46:25;;;;;;;2.00;2.00;;;15.80;58.20;;;;;;4968800;28;20421;-88
2021/05/09 01:48:51;;;;;;;2.70;2.70;;;14.60;56.50;;;;;;4987879;28;20252;-88
2021/05/09 01:51:17;;;;;;;2.23;2.23;;;15.20;57.80;;;;;;4986710;28;20205;-88
2021/05/09 01:53:43;;;;;;;2.60;2.50;;;16.20;58.30;;;;;;4972226;28;20174;-88
2021/05/09 01:56:09;;;;;;;2.80;2.70;;;15.80;57.70;;;;;;4970537;28;20425;-88
2021/05/09 01:58:35;;;;;;;3.90;2.80;;;16.50;59.20;;;;;;4971014;28;20294;-89
2021/05/09 02:01:00;;;;;;;2.50;2.50;;;15.60;58.00;;;;;;4986312;28;20868;-89
2021/05/09 02:03:26;;;;;;;2.70;2.50;;;15.50;57.60;;;;;;4968745;28;20180;-89
2021/05/09 02:05:51;;;;;;;2.70;2.57;;;14.30;56.80;;;;;;4970940;28;20265;-88
2021/05/09 02:08:22;;;;;;;2.50;2.30;;;16.10;57.80;;;;;;4969753;28;20189;-89
2021/05/09 02:10:49;;;;;;;2.43;2.43;;;13.70;56.10;;;;;;4988247;28;20711;-88
2021/05/09 02:13:17;;;;;;;2.57;2.37;;;15.90;57.60;;;;;;4988935;28;20417;-88
2021/05/09 02:15:43;;;;;;;2.43;2.33;;;16.60;58.40;;;;;;4968972;28;20429;-88
2021/05/09 02:18:11;;;;;;;2.50;2.30;;;14.90;58.20;;;;;;4972126;28;20444;-89
2021/05/09 02:20:37;;;;;;;2.00;2.00;;;14.90;57.70;;;;;;4971191;28;20190;-88
2021/05/09 02:23:03;;;;;;;2.90;2.90;;;16.40;59.30;;;;;;4967020;29;20433;-88
2021/05/09 02:25:29;;;;;;;2.87;2.77;;;16.10;58.20;;;;;;4951433;29;20244;-89
2021/05/09 02:27:55;;;;;;;2.43;2.43;;;14.60;58.00;;;;;;4968251;29;20494;-89
2021/05/09 02:30:22;;;;;;;2.60;2.50;;;16.10;59.00;;;;;;4968475;28;20740;-89
2021/05/09 02:32:47;;;;;;;2.40;2.40;;;14.90;58.20;;;;;;4969343;29;20175;-89
2021/05/09 02:35:16;;;;;;;2.37;2.37;;;16.40;58.50;;;;;;4969663;29;20473;-89
2021/05/09 02:37:55;;;;;;;3.03;2.93;;;17.40;58.70;;;;;;4969432;29;20202;-89
2021/05/09 02:40:21;;;;;;;2.30;2.30;;;15.20;58.50;;;;;;4969163;29;20510;-88
2021/05/09 02:42:47;;;;;;;2.67;2.47;;;14.90;58.50;;;;;;4948168;29;20458;-88
2021/05/09 02:45:13;;;;;;;2.33;2.33;;;14.70;57.50;;;;;;4968896;29;20978;-89
2021/05/09 02:47:39;;;;;;;2.77;2.67;;;15.00;57.40;;;;;;4965352;29;20919;-89
2021/05/09 02:50:08;;;;;;;2.50;2.50;;;15.10;58.00;;;;;;4952723;29;20494;-88
2021/05/09 02:52:34;;;;;;;1.90;1.90;;;15.20;57.70;;;;;;4968345;29;20174;-89
2021/05/09 02:55:00;;;;;;;2.40;2.20;;;16.10;58.50;;;;;;4968101;29;20418;-88
2021/05/09 02:57:26;;;;;;;2.43;2.43;;;16.10;58.50;;;;;;4966606;29;20198;-90
2021/05/09 02:59:51;;;;;;;2.77;2.50;;;16.70;60.10;;;;;;4950189;29;20434;-89
2021/05/09 03:02:17;;;;;;;2.40;2.40;;;16.90;58.70;;;;;;4967188;29;20618;-89
2021/05/09 03:04:43;;;;;;;2.80;2.70;;;15.20;58.50;;;;;;4964065;29;20179;-89
2021/05/09 03:07:08;;;;;;;2.87;2.80;;;15.00;56.90;;;;;;4966055;29;20249;-88
2021/05/09 03:09:36;;;;;;;2.50;2.50;;;14.90;58.30;;;;;;4965596;29;20270;-89
2021/05/09 03:12:01;;;;;;;2.57;2.43;;;15.70;57.80;;;;;;4947407;29;20221;-88
2021/05/09 03:14:27;;;;;;;2.70;2.60;;;15.50;57.10;;;;;;4966513;29;20406;-87
2021/05/09 03:16:53;;;;;;;2.43;2.33;;;16.90;59.20;;;;;;4963919;29;20563;-88
2021/05/09 03:19:19;;;;;;;2.67;2.67;;;15.70;57.70;;;;;;4965081;28;20179;-89
2021/05/09 03:21:45;;;;;;;2.23;2.13;;;15.40;58.70;;;;;;4967094;29;20446;-88
2021/05/09 03:24:13;;;;;;;2.67;2.67;;;14.80;57.50;;;;;;4966877;29;20477;-88
2021/05/09 03:26:39;;;;;;;2.80;2.67;;;15.20;57.70;;;;;;4962715;29;20318;-89
2021/05/09 03:29:05;;;;;;;2.53;2.53;;;15.50;57.50;;;;;;4967846;29;20476;-89
2021/05/09 03:31:32;;;;;;;3.50;2.60;;;16.10;58.70;;;;;;4965955;29;20457;-89
2021/05/09 03:33:58;;;;;;;2.97;2.47;;;15.20;58.00;;;;;;4965542;29;20423;-89
2021/05/09 03:36:24;;;;;;;2.70;2.70;;;15.00;57.90;;;;;;4966820;29;20429;-88
2021/05/09 03:38:50;;;;;;;2.70;2.60;;;15.80;58.90;;;;;;4966676;29;20419;-87
2021/05/09 03:41:18;;;;;;;2.17;2.17;;;15.70;57.50;;;;;;4963852;28;20798;-89
2021/05/09 03:43:44;;;;;;;2.30;2.30;;;15.20;57.10;;;;;;4950818;29;20430;-89
2021/05/09 03:46:10;;;;;;;2.00;2.00;;;16.00;58.50;;;;;;4966008;29;20426;-89
2021/05/09 03:48:36;;;;;;;2.60;2.50;;;15.50;57.30;;;;;;4966605;29;20414;-89
2021/05/09 03:51:03;;;;;;;2.03;1.97;;;14.40;56.70;;;;;;4950117;29;20163;-88
2021/05/09 03:53:30;;;;;;;2.23;2.23;;;15.10;57.60;;;;;;4964524;29;20446;-88
2021/05/09 03:55:58;;;;;;;2.77;2.57;;;15.60;58.30;;;;;;4947623;29;20424;-89
2021/05/09 03:58:24;;;;;;;1.60;1.60;;;16.30;58.10;;;;;;4965071;29;20422;-89
2021/05/09 04:00:51;;;;;;;2.10;2.10;;;14.70;57.00;;;;;;4966342;29;20483;-88
2021/05/09 04:03:30;;;;;;;2.50;2.40;;;16.60;58.50;;;;;;4971069;29;20174;-89
2021/05/09 04:05:56;;;;;;;2.33;2.33;;;15.00;57.30;;;;;;4963807;28;20429;-89
2021/05/09 04:08:26;;;;;;;2.17;2.17;;;15.40;57.80;;;;;;4965203;29;20928;-89
2021/05/09 04:10:53;;;;;;;2.20;2.20;;;16.50;58.50;;;;;;4964592;29;20216;-89
2021/05/09 04:13:23;;;;;;;3.20;2.03;;;15.00;57.10;;;;;;4963114;29;20486;-88
2021/05/09 04:15:49;;;;;;;2.30;2.20;;;16.40;58.20;;;;;;4967426;29;20430;-89
2021/05/09 04:18:16;;;;;;;1.90;1.90;;;14.90;57.50;;;;;;4967700;28;20414;-89
2021/05/09 04:20:43;;;;;;;2.13;2.10;;;14.80;57.60;;;;;;4967107;29;20426;-89
2021/05/09 04:23:13;;;;;;;1.80;1.80;;;15.90;58.50;;;;;;4965771;29;20461;-88
2021/05/09 04:25:41;;;;;;;2.47;2.37;;;14.40;58.00;;;;;;4967005;29;20476;-89
2021/05/09 04:28:07;;;;;;;2.30;2.20;;;15.40;58.40;;;;;;4965656;29;20426;-89
2021/05/09 04:30:34;;;;;;;2.30;2.20;;;13.80;58.00;;;;;;4964926;29;20575;-87
2021/05/09 04:33:02;;;;;;;2.40;2.40;;;16.00;58.90;;;;;;4960410;28;20433;-88
2021/05/09 04:35:29;;;;;;;2.40;2.40;;;14.90;57.60;;;;;;4966559;29;20473;-88
2021/05/09 04:37:55;;;;;;;2.03;2.03;;;15.60;59.20;;;;;;4964366;29;20996;-88
2021/05/09 04:40:21;;;;;;;2.63;2.63;;;15.20;59.90;;;;;;4964952;29;20418;-89
2021/05/09 04:42:47;;;;;;;2.30;2.30;;;15.20;60.50;;;;;;4968485;29;20429;-89
2021/05/09 04:45:13;;;;;;;1.90;1.90;;;14.60;58.50;;;;;;4967970;28;20430;-89
2021/05/09 04:47:41;;;;;;;2.73;2.57;;;15.80;58.60;;;;;;4974124;29;20204;-89
2021/05/09 04:50:11;;;;;;;2.10;2.10;;;15.90;58.50;;;;;;4976213;28;20474;-89
2021/05/09 04:52:42;;;;;;;2.03;1.93;;;15.00;57.60;;;;;;4973706;29;20446;-88
2021/05/09 04:55:11;;;;;;;2.20;2.20;;;15.20;56.40;;;;;;4977527;28;20494;-88
2021/05/09 04:57:52;;;;;;;2.53;2.43;;;14.50;55.50;;;;;;4962997;28;20426;-89
2021/05/09 05:00:29;;;;;;;2.50;2.50;;;15.20;56.20;;;;;;4962140;28;20430;-88
2021/05/09 05:02:59;;;;;;;2.70;2.60;;;15.60;55.20;;;;;;4963511;28;20421;-90
2021/05/09 05:05:32;;;;;;;1.90;1.90;;;16.50;55.80;;;;;;4960449;29;20438;-89
2021/05/09 05:08:01;;;;;;;2.43;2.43;;;16.60;55.20;;;;;;4974767;29;20437;-89
2021/05/09 05:10:27;;;;;;;2.90;2.50;;;17.10;55.60;;;;;;4975355;29;20484;-89
2021/05/09 05:12:53;;;;;;;2.20;2.20;;;17.00;56.30;;;;;;4952854;29;20498;-88
2021/05/09 05:15:20;;;;;;;3.10;3.00;;;17.20;55.70;;;;;;4937642;29;20450;-88
2021/05/09 05:17:55;;;;;;;3.20;2.33;;;17.40;53.90;;;;;;4970644;29;20206;-87
2021/05/09 05:20:24;;;;;;;2.13;2.13;;;17.40;53.90;;;;;;4959429;29;20418;-88
2021/05/09 05:22:57;;;;;;;2.37;2.37;;;17.60;53.80;;;;;;4973891;28;20481;-88
2021/05/09 05:25:45;;;;;;;2.07;2.07;;;18.00;53.10;;;;;;4973816;29;20466;-88
2021/05/09 05:28:25;;;;;;;2.53;2.40;;;17.60;51.60;;;;;;4973309;29;20442;-90
2021/05/09 05:30:53;;;;;;;2.20;2.20;;;19.00;52.10;;;;;;4957940;29;20489;-88
2021/05/09 05:33:39;;;;;;;2.10;2.10;;;19.10;49.70;;;;;;4972081;29;20466;-87
2021/05/09 05:36:06;;;;;;;2.10;2.10;;;19.00;49.60;;;;;;4972937;29;20426;-89
2021/05/09 05:38:32;;;;;;;1.90;1.87;;;19.20;50.10;;;;;;4955208;29;20434;-88
2021/05/09 05:40:59;;;;;;;2.27;2.20;;;20.00;49.10;;;;;;4971685;28;20418;-88
2021/05/09 05:43:33;;;;;;;2.00;2.00;;;17.70;49.30;;;;;;4968417;29;20430;-88
2021/05/09 05:46:00;;;;;;;1.80;1.70;;;18.80;50.20;;;;;;4952571;29;20414;-90
2021/05/09 05:48:30;;;;;;;1.90;1.80;;;19.30;50.10;;;;;;4975268;29;20426;-89
2021/05/09 05:51:05;;;;;;;3.17;2.30;;;19.50;47.70;;;;;;4974410;29;20465;-88
2021/05/09 05:56:30;;;;;;;1.50;1.50;;;20.00;46.90;;;;;;4976961;28;20455;-88
2021/05/09 05:59:17;;;;;;;1.43;1.43;;;19.70;44.40;;;;;;4976458;28;20430;-89
2021/05/09 06:02:10;;;;;;;1.83;1.80;;;21.40;43.60;;;;;;4961671;28;20423;-89
2021/05/09 06:04:40;;;;;;;1.50;1.50;;;20.80;44.20;;;;;;4974710;28;20434;-91
2021/05/09 06:07:46;;;;;;;2.17;2.17;;;21.20;43.50;;;;;;4979557;28;20421;-88
2021/05/09 06:10:27;;;;;;;1.50;1.50;;;22.20;42.40;;;;;;4979954;28;20516;-90
2021/05/09 06:15:56;;;;;;;1.97;1.97;;;21.90;41.70;;;;;;5282304;23;20527;-88
2021/05/09 06:18:22;;;;;;;2.97;2.03;;;21.50;41.60;;;;;;4997824;28;20409;-89
2021/05/09 06:20:50;;;;;;;1.63;1.60;;;23.00;41.40;;;;;;4964337;28;20962;-89
2021/05/09 06:23:22;;;;;;;1.43;1.43;;;23.20;41.00;;;;;;4998396;28;20452;-88
2021/05/09 06:25:48;;;;;;;1.60;1.50;;;23.30;39.10;;;;;;4998666;28;20422;-89
2021/05/09 06:28:16;;;;;;;1.60;1.60;;;25.30;40.20;;;;;;4979748;28;20730;-90
2021/05/09 06:30:43;;;;;;;1.53;1.53;;;25.20;40.20;;;;;;4997151;28;20424;-89
2021/05/09 06:33:10;;;;;;;3.40;3.10;;;25.60;39.50;;;;;;4992636;28;20504;-88
2021/05/09 06:36:00;;;;;;;3.50;2.10;;;24.80;38.70;;;;;;4994219;28;20420;-88
2021/05/09 06:38:43;;;;;;;1.50;1.50;;;24.40;37.40;;;;;;4963110;28;20485;-87
2021/05/09 06:41:18;;;;;;;1.33;1.33;;;24.00;36.30;;;;;;4966920;28;20491;-89
2021/05/09 06:43:47;;;;;;;1.57;1.57;;;26.50;36.10;;;;;;4988214;28;20496;-88
2021/05/09 06:46:18;;;;;;;2.90;2.70;;;26.40;34.90;;;;;;4964247;28;20433;-89
2021/05/09 06:48:44;;;;;;;1.90;1.80;;;28.40;36.30;;;;;;4976713;28;20433;-90
2021/05/09 06:51:13;;;;;;;1.60;1.60;;;28.20;35.10;;;;;;4995955;28;20409;-89
2021/05/09 06:53:55;;;;;;;1.60;1.60;;;26.60;34.00;;;;;;4990139;28;20166;-88
2021/05/09 06:56:26;;;;;;;1.70;1.70;;;26.10;34.20;;;;;;4961921;28;20430;-89
2021/05/09 06:58:52;;;;;;;1.87;1.87;;;26.50;35.10;;;;;;4989065;28;20434;-88
2021/05/09 07:01:18;;;;;;;1.50;1.50;;;24.50;34.30;;;;;;4971734;28;20435;-87
2021/05/09 07:03:44;;;;;;;1.40;1.40;;;27.20;37.20;;;;;;4974990;28;20174;-89
2021/05/09 07:06:10;;;;;;;1.60;1.60;;;26.10;36.00;;;;;;4980317;28;20568;-88
2021/05/09 07:08:38;;;;;;;1.67;1.67;;;27.00;36.70;;;;;;4980201;28;20461;-89
2021/05/09 07:11:07;;;;;;;1.60;1.60;;;24.00;33.30;;;;;;4981149;28;20205;-87
2021/05/09 07:19:02;;;;;;;1.93;1.90;;;26.10;34.00;;;;;;4968811;29;20482;-89
2021/05/09 07:21:36;;;;;;;1.90;1.80;;;27.70;36.10;;;;;;4954146;29;20437;-88
2021/05/09 07:24:08;;;;;;;1.50;1.40;;;27.00;33.90;;;;;;4970099;29;20438;-89
2021/05/09 07:26:34;;;;;;;2.07;2.07;;;27.50;34.00;;;;;;4955051;29;20431;-89
2021/05/09 07:29:00;;;;;;;1.73;1.73;;;28.20;33.70;;;;;;4954307;29;20441;-89
2021/05/09 07:31:25;;;;;;;2.27;2.07;;;28.70;33.70;;;;;;4972422;29;20418;-89
2021/05/09 07:36:29;;;;;;;1.83;1.73;;;27.70;32.10;;;;;;4988694;23;20236;-88
2021/05/09 07:38:55;;;;;;;1.70;1.70;;;29.30;34.70;;;;;;4993626;28;20429;-89
2021/05/09 07:41:21;;;;;;;3.90;2.83;;;29.20;33.50;;;;;;4976720;28;20459;-88
2021/05/09 07:43:47;;;;;;;1.40;1.40;;;26.20;31.50;;;;;;4972620;28;20210;-88
2021/05/09 07:46:13;;;;;;;2.20;1.90;;;30.70;32.80;;;;;;4958488;28;20912;-89
2021/05/09 07:48:39;;;;;;;1.73;1.73;;;29.20;31.60;;;;;;4959078;28;20428;-88
2021/05/09 07:51:04;;;;;;;2.10;2.07;;;29.70;31.60;;;;;;4976605;28;20253;-88
2021/05/09 07:53:30;;;;;;;2.30;1.93;;;30.10;32.70;;;;;;4959152;28;20601;-87
2021/05/09 07:55:55;;;;;;;3.77;3.57;;;29.10;31.10;;;;;;4961877;28;20210;-89
2021/05/09 07:58:22;;;;;;;2.10;1.80;;;29.10;31.20;;;;;;4975333;28;20528;-87
2021/05/09 08:00:49;;;;;;;1.97;1.90;;;28.70;30.40;;;;;;4976374;28;20206;-88
2021/05/09 08:03:15;;;;;;;1.93;1.80;;;28.40;31.50;;;;;;4960842;28;20493;-89
2021/05/09 08:05:42;;;;;;;1.73;1.73;;;28.90;31.80;;;;;;4976463;28;20430;-89
2021/05/09 08:08:08;;;;;;;2.27;2.17;;;31.70;31.90;;;;;;4977794;28;20425;-88
2021/05/09 08:10:41;;;;;;;2.63;2.53;;;30.30;32.20;;;;;;4980677;28;20426;-87
2021/05/09 08:13:10;;;;;;;2.00;2.00;;;29.10;31.70;;;;;;4993334;28;20406;-89
2021/05/09 08:15:38;;;;;;;1.80;1.80;;;29.70;32.50;;;;;;4975972;28;20413;-89
2021/05/09 08:18:05;;;;;;;1.60;1.60;;;29.40;31.30;;;;;;4977510;28;20433;-88
2021/05/09 08:20:31;;;;;;;1.83;1.83;;;30.20;32.40;;;;;;4979387;28;21347;-87
2021/05/09 08:22:57;;;;;;;1.80;1.80;;;30.10;31.20;;;;;;4972739;28;20406;-83
2021/05/09 08:25:23;;;;;;;2.80;1.70;;;30.10;30.90;;;;;;4971836;28;20410;-83
2021/05/09 08:27:49;;;;;;;2.00;2.00;;;29.20;31.80;;;;;;4970450;28;20436;-82
2021/05/09 08:30:17;;;;;;;2.40;1.90;;;30.00;32.10;;;;;;4971292;28;20266;-82
2021/05/09 08:32:43;;;;;;;2.00;1.90;;;29.50;31.70;;;;;;4971239;28;20418;-83
2021/05/09 08:35:11;;;;;;;1.73;1.73;;;29.50;32.20;;;;;;4952954;28;20533;-84
2021/05/09 08:37:40;;;;;;;2.77;2.07;;;29.70;32.00;;;;;;4953711;28;20613;-83
2021/05/09 08:40:08;;;;;;;1.90;1.90;;;;;;;;;;4970437;28;20515;-83
2021/05/09 08:42:33;;;;;;;2.10;2.00;;;30.50;31.10;;;;;;4953604;28;20429;-83
2021/05/09 08:45:02;;;;;;;1.80;1.80;;;30.00;31.20;;;;;;4972134;28;20425;-84
2021/05/09 08:47:38;;;;;;;1.83;1.80;;;29.60;31.90;;;;;;4971258;28;20173;-83
2021/05/09 08:50:13;;;;;;;2.20;2.20;;;30.80;30.90;;;;;;4970665;28;20424;-83
2021/05/09 08:52:40;;;;;;;1.80;1.80;;;31.30;30.60;;;;;;4971290;28;20425;-84
2021/05/09 08:55:09;;;;;;;1.73;1.73;;;32.80;29.70;;;;;;4973201;28;20507;-83
2021/05/09 08:57:35;;;;;;;1.60;1.60;;;32.30;29.10;;;;;;4973032;28;20504;-83
2021/05/09 09:00:01;;;;;;;1.50;1.50;;;33.00;28.80;;;;;;4953393;28;20479;-83
2021/05/09 09:02:28;;;;;;;2.33;2.20;;;32.30;29.00;;;;;;4970770;28;20409;-83
2021/05/09 09:04:56;;;;;;;1.73;1.73;;;31.50;29.40;;;;;;4970967;28;20460;-83
2021/05/09 09:07:22;;;;;;;1.90;1.90;;;29.80;29.70;;;;;;4953310;28;20928;-83
2021/05/09 09:09:51;;;;;;;1.80;1.70;;;29.40;31.30;;;;;;4971305;28;20428;-83
2021/05/09 09:12:17;;;;;;;2.03;1.87;;;29.70;31.50;;;;;;4953826;28;20425;-83
2021/05/09 09:14:57;;;;;;;2.00;2.00;;;30.70;31.00;;;;;;4970439;28;20433;-82
2021/05/09 09:17:24;;;;;;;2.77;2.10;;;31.70;30.00;;;;;;4953258;28;20421;-85
2021/05/09 09:20:12;;;;;;;1.83;1.83;;;33.00;29.30;;;;;;4971665;28;20903;-85
2021/05/09 09:22:53;;;;;;;2.00;1.50;;;34.30;28.70;;;;;;4953561;28;20785;-85
2021/05/09 09:25:20;;;;;;;1.63;1.63;;;35.20;27.90;;;;;;4954081;28;20429;-84
2021/05/09 09:27:48;;;;;;;2.00;2.00;;;35.00;28.00;;;;;;4971265;28;20469;-84
2021/05/09 09:30:16;;;;;;;1.70;1.70;;;35.60;27.70;;;;;;4971708;28;20424;-83
2021/05/09 09:32:42;;;;;;;2.30;2.17;;;34.90;27.80;;;;;;4972070;28;20460;-87
2021/05/09 09:35:27;;;;;;;2.10;2.10;;;;;;;;;;4971138;28;20481;-84
2021/05/09 09:37:52;;;;;;;2.27;2.20;;;34.00;28.20;;;;;;4971519;28;20413;-84
2021/05/09 09:40:18;;;;;;;1.93;1.83;;;32.10;28.70;;;;;;4972732;28;20484;-84
2021/05/09 09:42:45;;;;;;;1.90;1.90;;;33.70;29.00;;;;;;4967467;28;20184;-83
2021/05/09 09:45:18;;;;;;;2.50;2.50;;;33.80;29.30;;;;;;4970877;28;20193;-84
2021/05/09 09:47:48;;;;;;;2.00;1.97;;;33.80;29.10;;;;;;4974852;28;20413;-84
2021/05/09 09:50:40;;;;;;;2.07;1.97;;;34.10;28.90;;;;;;4956880;28;20433;-83
2021/05/09 09:53:32;;;;;;;2.00;2.00;;;33.70;29.10;;;;;;4974861;28;20492;-85
2021/05/09 09:56:16;;;;;;;2.43;2.23;;;34.00;28.70;;;;;;4975592;28;20452;-85
2021/05/09 09:58:51;;;;;;;1.83;1.83;;;34.50;28.40;;;;;;4974158;28;20421;-84
2021/05/09 10:01:20;;;;;;;1.97;1.87;;;33.90;28.90;;;;;;4975233;28;20512;-84
2021/05/09 10:03:47;;;;;;;3.53;1.80;;;33.90;28.50;;;;;;4974132;28;20471;-85
2021/05/09 10:06:13;;;;;;;2.10;2.10;;;33.40;28.10;;;;;;4974261;28;20421;-84
2021/05/09 10:08:39;;;;;;;1.90;1.90;;;32.50;28.30;;;;;;4974389;28;20428;-84
2021/05/09 10:11:06;;;;;;;2.60;2.50;;;33.20;29.30;;;;;;4974461;28;20421;-83
2021/05/09 10:13:33;;;;;;;3.23;2.73;;;31.80;29.40;;;;;;4974074;28;20178;-84
2021/05/09 10:16:00;;;;;;;1.90;1.90;;;30.50;29.70;;;;;;4973772;28;20463;-85
2021/05/09 10:18:27;;;;;;;3.20;2.27;;;32.30;29.80;;;;;;4974309;28;20418;-85
2021/05/09 10:20:54;;;;;;;3.10;2.93;;;32.70;29.40;;;;;;4974803;28;20860;-85
2021/05/09 10:23:20;;;;;;;2.53;2.20;;;32.70;29.50;;;;;;4973992;28;20475;-85
2021/05/09 10:25:54;;;;;;;2.80;2.70;;;32.40;29.60;;;;;;4973773;28;20422;-84
2021/05/09 10:28:41;;;;;;;2.63;2.13;;;33.00;29.50;;;;;;4977094;28;20432;-85
2021/05/09 10:31:07;;;;;;;2.20;2.20;;;32.90;29.30;;;;;;4976646;28;20401;-84
2021/05/09 10:33:39;;;;;;;2.13;2.13;;;32.80;29.20;;;;;;4976289;28;20409;-84
2021/05/09 10:36:20;;;;;;;1.93;1.93;;;32.80;29.10;;;;;;4976376;28;20504;-84
2021/05/09 10:39:17;;;;;;;1.70;1.70;;;32.90;29.10;;;;;;4976632;28;20912;-85
2021/05/09 10:41:55;;;;;;;2.43;2.33;;;32.80;29.30;;;;;;4976506;28;20497;-84
2021/05/09 10:44:40;;;;;;;2.57;2.57;;;32.90;29.20;;;;;;4976526;28;20465;-84
2021/05/09 10:47:13;;;;;;;2.13;2.13;;;32.80;29.30;;;;;;4976063;28;20401;-85
2021/05/09 10:50:13;;;;;;;2.50;2.50;;;32.90;29.10;;;;;;4975956;28;20423;-84
2021/05/09 10:52:40;;;;;;;2.20;2.20;;;32.90;29.00;;;;;;4975820;28;20445;-84
2021/05/09 10:55:46;;;;;;;2.10;2.10;;;33.20;29.00;;;;;;4976026;28;20418;-85
2021/05/09 10:58:14;;;;;;;2.70;2.40;;;33.30;28.90;;;;;;4975508;28;20994;-83
2021/05/09 11:01:00;;;;;;;2.10;2.10;;;33.60;28.80;;;;;;4975866;28;20476;-85
2021/05/09 11:03:45;;;;;;;2.47;2.03;;;33.70;28.80;;;;;;4962793;28;20516;-84
2021/05/09 11:06:40;;;;;;;2.30;2.30;;;33.50;28.60;;;;;;4957994;28;20441;-83
2021/05/09 11:09:08;;;;;;;2.37;2.23;;;33.10;28.90;;;;;;4974417;28;20972;-84
2021/05/09 11:11:35;;;;;;;4.07;3.20;;;32.90;29.00;;;;;;4976259;28;20769;-84
2021/05/09 11:14:01;;;;;;;1.93;1.83;;;33.10;28.90;;;;;;4975435;28;20924;-84
2021/05/09 11:16:28;;;;;;;2.20;2.20;;;33.70;28.70;;;;;;4975451;28;20422;-84
2021/05/09 11:19:00;;;;;;;2.60;2.50;;;33.40;28.70;;;;;;4976586;28;20771;-83
2021/05/09 11:21:31;;;;;;;3.07;2.97;;;33.30;28.90;;;;;;4959229;28;20433;-85
2021/05/09 11:23:58;;;;;;;2.30;2.30;;;33.40;29.30;;;;;;4976388;28;20421;-84
2021/05/09 11:26:25;;;;;;;2.37;2.37;;;32.20;29.40;;;;;;4974861;28;20444;-84
2021/05/09 11:29:06;;;;;;;5.80;2.50;;;31.90;29.40;;;;;;4975139;28;20424;-84
2021/05/09 11:31:34;;;;;;;2.77;2.67;;;31.20;29.80;;;;;;4975470;28;20457;-84
2021/05/09 11:34:00;;;;;;;2.90;2.90;;;30.70;30.30;;;;;;4975395;28;20622;-84
2021/05/09 11:36:28;;;;;;;2.40;2.30;;;30.00;30.20;;;;;;4975021;28;20507;-82
2021/05/09 11:39:17;;;;;;;2.50;2.40;;;31.00;30.60;;;;;;4975192;28;20417;-85
2021/05/09 11:41:49;;;;;;;2.70;2.60;;;31.40;29.90;;;;;;4958082;28;20426;-84
2021/05/09 11:44:15;;;;;;;2.43;2.43;;;31.30;30.00;;;;;;4976088;28;20405;-84
2021/05/09 11:46:41;;;;;;;2.30;2.10;;;31.90;29.90;;;;;;4975782;28;20491;-85
2021/05/09 11:49:17;;;;;;;2.53;2.43;;;32.70;29.50;;;;;;4975690;28;20414;-85
2021/05/09 11:51:54;;;;;;;2.20;2.20;;;33.90;29.00;;;;;;4975090;28;20162;-82
2021/05/09 11:54:21;;;;;;;2.47;2.47;;;35.00;27.90;;;;;;4975719;28;20491;-84
2021/05/09 11:56:54;;;;;;;1.90;1.90;;;34.70;27.70;;;;;;4975129;28;20405;-85
2021/05/09 11:59:32;;;;;;;2.10;2.10;;;35.00;27.60;;;;;;4975855;28;20546;-85
2021/05/09 12:02:03;;;;;;;2.23;2.20;;;33.90;28.50;;;;;;4977033;28;20417;-83
2021/05/09 12:04:30;;;;;;;2.10;2.10;;;34.10;28.10;;;;;;4976748;28;20491;-83
2021/05/09 12:07:03;;;;;;;2.17;2.07;;;34.40;28.10;;;;;;4977781;28;20504;-83
2021/05/09 12:09:30;;;;;;;3.03;2.93;;;34.70;27.80;;;;;;4959759;28;20425;-83
2021/05/09 12:11:56;;;;;;;1.80;1.80;;;34.60;27.50;;;;;;4956794;28;20413;-85
2021/05/09 12:14:27;;;;;;;1.97;1.97;;;34.70;27.60;;;;;;4941334;28;20433;-83
2021/05/09 12:16:53;;;;;;;2.30;2.20;;;35.10;28.00;;;;;;4974949;28;20433;-83
2021/05/09 12:19:27;;;;;;;2.30;2.30;;;34.00;27.90;;;;;;4974127;28;20524;-85
2021/05/09 12:22:05;;;;;;;2.10;2.00;;;34.30;27.90;;;;;;4956930;28;20474;-84
2021/05/09 12:24:46;;;;;;;2.93;2.10;;;34.10;28.60;;;;;;4974288;28;20417;-83
2021/05/09 12:27:12;;;;;;;2.13;2.03;;;34.50;28.60;;;;;;4974220;28;20913;-84
2021/05/09 12:29:46;;;;;;;3.67;3.47;;;34.90;28.40;;;;;;4974136;28;20786;-85
2021/05/09 12:32:17;;;;;;;2.27;2.10;;;35.00;27.90;;;;;;4974408;28;20432;-83
2021/05/09 12:35:22;;;;;;;2.47;2.47;;;34.90;27.70;;;;;;4961325;28;20425;-83
2021/05/09 12:37:47;;;;;;;2.47;2.47;;;34.60;28.10;;;;;;4895302;29;20507;-84
2021/05/09 12:40:29;;;;;;;2.10;2.00;;;34.50;28.30;;;;;;4895760;29;20539;-84
2021/05/09 12:43:11;;;;;;;2.87;2.77;;;34.40;28.20;;;;;;4944768;28;20535;-81
2021/05/09 12:45:46;;;;;;;2.10;2.00;;;33.70;28.60;;;;;;4974453;28;20436;-83
2021/05/09 12:48:30;;;;;;;2.63;2.63;;;33.80;28.60;;;;;;4760124;28;10000699;-83
2021/05/09 12:51:03;;;;;;;2.27;2.07;;;33.60;28.70;;;;;;4937512;29;20371;-85
2021/05/09 12:53:50;;;;;;;3.00;2.13;;;33.50;28.40;;;;;;4956465;29;20461;-84
2021/05/09 12:56:16;;;;;;;2.87;2.67;;;33.30;28.90;;;;;;4955629;29;20451;-84
2021/05/09 12:58:57;;;;;;;2.80;2.70;;;33.20;29.10;;;;;;4953842;29;20926;-85
2021/05/09 13:01:23;;;;;;;2.53;2.40;;;32.70;29.00;;;;;;4935121;29;20532;-83
2021/05/09 13:03:48;;;;;;;2.60;2.50;;;32.80;29.60;;;;;;4953450;29;20497;-84
2021/05/09 13:06:14;;;;;;;2.43;2.43;;;32.70;29.50;;;;;;4935760;29;20182;-84
2021/05/09 13:08:40;;;;;;;1.97;1.80;;;32.70;29.40;;;;;;4952970;29;20341;-83
2021/05/09 13:11:05;;;;;;;2.07;2.07;;;33.40;29.70;;;;;;4952848;29;20183;-84
2021/05/09 13:13:31;;;;;;;2.47;2.30;;;32.90;29.40;;;;;;4952815;28;20171;-85
2021/05/09 13:15:56;;;;;;;2.63;2.43;;;33.70;29.70;;;;;;4937998;29;20217;-85